Time;durP1;ratioP1;P1;durP2;ratioP2;P2;SDS_P1;SDS_P2;PMS_P1;PMS_P2;Temp;Humidity;BMP_temperature;BMP_pressure;BME280_temperature;BME280_humidity;BME280_pressure;Samples;Min_cycle;Max_cycle;Signal;HPM_P1;HPM_P2
2023/09/22 00:00:01;;;;;;;4.28;1.35;;;;;;;;;;5080200;28;20368;-63
2023/09/22 00:02:27;;;;;;;10.25;1.77;;;;;;;;;;5081359;28;20031;-63
2023/09/22 00:04:53;;;;;;;3.58;1.77;;;;;;;;;;5061965;28;20040;-63
2023/09/22 00:07:19;;;;;;;4.65;1.55;;;;;;;;;;5080681;28;20082;-63
2023/09/22 00:09:45;;;;;;;3.47;1.30;;;;;;;;;;5081105;28;20147;-63
2023/09/22 00:12:11;;;;;;;2.80;1.42;;;;;;;;;;5081761;28;20201;-63
2023/09/22 00:14:37;;;;;;;3.83;1.58;;;;;;;;;;5080433;28;21717;-63
2023/09/22 00:17:05;;;;;;;4.15;1.75;;;;;;;;;;5065026;28;20032;-63
2023/09/22 00:19:31;;;;;;;3.47;1.77;;;;;;;;;;5081274;28;20573;-63
2023/09/22 00:21:57;;;;;;;10.95;2.30;;;;;;;;;;5081030;28;21203;-63
2023/09/22 00:24:23;;;;;;;2.92;1.60;;;;;;;;;;5081064;28;20376;-63
2023/09/22 00:26:49;;;;;;;3.15;1.50;;;;;;;;;;5081522;28;20515;-63
2023/09/22 00:29:15;;;;;;;3.58;1.77;;;;;;;;;;5080529;28;20032;-63
2023/09/22 00:31:41;;;;;;;5.20;1.67;;;;;;;;;;5081221;28;21741;-63
2023/09/22 00:34:08;;;;;;;3.80;2.15;;;;;;;;;;5080972;28;21229;-63
2023/09/22 00:36:34;;;;;;;5.00;1.88;;;;;;;;;;5080260;28;20032;-63
2023/09/22 00:39:00;;;;;;;3.97;1.35;;;;;;;;;;5081217;28;20503;-63
2023/09/22 00:41:26;;;;;;;5.72;2.33;;;;;;;;;;5081492;28;20523;-63
2023/09/22 00:43:52;;;;;;;4.38;1.58;;;;;;;;;;5080693;28;20047;-63
2023/09/22 00:46:24;;;;;;;4.38;2.10;;;;;;;;;;5081065;28;20082;-63
2023/09/22 00:48:51;;;;;;;4.60;2.17;;;;;;;;;;5065049;28;20042;-63
2023/09/22 00:51:19;;;;;;;4.90;2.25;;;;;;;;;;5078411;28;20553;-63
2023/09/22 00:53:46;;;;;;;4.07;2.30;;;;;;;;;;5084761;28;20033;-63
2023/09/22 00:56:13;;;;;;;5.70;2.58;;;;;;;;;;5085361;28;20964;-63
2023/09/22 00:58:39;;;;;;;5.53;3.67;;;;;;;;;;5084495;28;20560;-63
2023/09/22 01:01:05;;;;;;;9.68;5.22;;;;;;;;;;5084161;28;20024;-63
2023/09/22 01:03:31;;;;;;;9.52;5.25;;;;;;;;;;5084932;28;20055;-63
2023/09/22 01:05:57;;;;;;;10.32;6.18;;;;;;;;;;5083865;28;20573;-63
2023/09/22 01:08:23;;;;;;;13.57;6.88;;;;;;;;;;5085085;28;20050;-63
2023/09/22 01:10:49;;;;;;;9.85;7.00;;;;;;;;;;5084846;28;20640;-63
2023/09/22 01:13:15;;;;;;;9.63;7.28;;;;;;;;;;5084055;28;20834;-63
2023/09/22 01:15:42;;;;;;;12.70;8.07;;;;;;;;;;5084618;28;20070;-63
2023/09/22 01:18:13;;;;;;;9.52;7.40;;;;;;;;;;5084195;28;20115;-63
2023/09/22 01:20:43;;;;;;;11.30;7.45;;;;;;;;;;5083956;28;20666;-63
2023/09/22 01:23:09;;;;;;;12.35;8.52;;;;;;;;;;5084269;28;20482;-63
2023/09/22 01:25:36;;;;;;;12.07;7.82;;;;;;;;;;5084496;28;20039;-63
2023/09/22 01:28:02;;;;;;;10.75;8.30;;;;;;;;;;5083861;28;20490;-63
2023/09/22 01:30:29;;;;;;;12.23;8.85;;;;;;;;;;5084034;28;20051;-63
2023/09/22 01:32:55;;;;;;;11.25;8.52;;;;;;;;;;5083989;28;20035;-63
2023/09/22 01:35:21;;;;;;;13.65;8.63;;;;;;;;;;5082770;28;20063;-63
2023/09/22 01:37:51;;;;;;;12.95;9.15;;;;;;;;;;5082980;28;20570;-63
2023/09/22 01:40:17;;;;;;;12.48;9.32;;;;;;;;;;5083394;28;20070;-63
2023/09/22 01:42:43;;;;;;;15.68;9.85;;;;;;;;;;5082539;28;20142;-63
2023/09/22 01:45:10;;;;;;;14.07;10.40;;;;;;;;;;5083128;28;20047;-63
2023/09/22 01:47:39;;;;;;;12.70;9.82;;;;;;;;;;5083470;28;20035;-63
2023/09/22 01:50:06;;;;;;;14.30;11.35;;;;;;;;;;5083156;28;20024;-63
2023/09/22 01:52:32;;;;;;;14.52;10.52;;;;;;;;;;5083353;28;20427;-63
2023/09/22 01:54:58;;;;;;;16.95;11.57;;;;;;;;;;5083360;28;20074;-63
2023/09/22 01:57:24;;;;;;;14.02;11.75;;;;;;;;;;5083287;28;20027;-63
2023/09/22 01:59:50;;;;;;;14.05;11.85;;;;;;;;;;5083653;28;20093;-63
2023/09/22 02:02:16;;;;;;;17.15;12.55;;;;;;;;;;5064132;28;21024;-63
2023/09/22 02:04:43;;;;;;;14.50;11.82;;;;;;;;;;5072583;28;20493;-63
2023/09/22 02:07:10;;;;;;;19.98;13.45;;;;;;;;;;5083782;28;20297;-63
2023/09/22 02:09:36;;;;;;;16.77;13.88;;;;;;;;;;5083704;28;20036;-63
2023/09/22 02:12:02;;;;;;;17.67;15.25;;;;;;;;;;5083198;28;20379;-63
2023/09/22 02:14:28;;;;;;;18.70;14.43;;;;;;;;;;5083492;28;20039;-63
2023/09/22 02:16:54;;;;;;;19.63;14.85;;;;;;;;;;5083360;28;20031;-63
2023/09/22 02:19:20;;;;;;;20.80;15.80;;;;;;;;;;5083319;28;20082;-63
2023/09/22 02:21:46;;;;;;;21.85;16.02;;;;;;;;;;5063879;28;20194;-62
2023/09/22 02:24:12;;;;;;;21.48;17.52;;;;;;;;;;5083282;28;20052;-63
2023/09/22 02:26:39;;;;;;;21.48;16.75;;;;;;;;;;5082624;28;20721;-63
2023/09/22 02:29:05;;;;;;;18.90;16.42;;;;;;;;;;5083421;28;20032;-63
2023/09/22 02:31:32;;;;;;;22.25;16.08;;;;;;;;;;5083679;28;20028;-63
2023/09/22 02:33:58;;;;;;;24.42;17.92;;;;;;;;;;5082635;28;20600;-63
2023/09/22 02:36:24;;;;;;;23.63;17.27;;;;;;;;;;5083208;28;20425;-63
2023/09/22 02:38:50;;;;;;;23.50;16.55;;;;;;;;;;5083016;28;20031;-63
2023/09/22 02:41:17;;;;;;;23.20;16.90;;;;;;;;;;5082859;28;20506;-63
2023/09/22 02:43:43;;;;;;;21.88;15.95;;;;;;;;;;5063089;28;20043;-63
2023/09/22 02:46:09;;;;;;;23.05;18.27;;;;;;;;;;5082933;28;20067;-63
2023/09/22 02:48:35;;;;;;;25.05;18.60;;;;;;;;;;5082417;28;20083;-63
2023/09/22 02:51:05;;;;;;;23.20;16.85;;;;;;;;;;5082831;28;20028;-63
2023/09/22 02:53:31;;;;;;;21.45;16.60;;;;;;;;;;5082455;28;20098;-63
2023/09/22 02:55:58;;;;;;;27.10;17.35;;;;;;;;;;5082256;28;20032;-63
2023/09/22 02:58:24;;;;;;;20.45;16.50;;;;;;;;;;5082679;28;20040;-63
2023/09/22 03:00:50;;;;;;;25.85;18.25;;;;;;;;;;5082232;28;20040;-62
2023/09/22 03:03:16;;;;;;;22.08;17.58;;;;;;;;;;5081967;28;20055;-62
2023/09/22 03:05:42;;;;;;;24.65;17.77;;;;;;;;;;5082319;28;20035;-62
2023/09/22 03:08:08;;;;;;;25.65;17.20;;;;;;;;;;5081794;28;20031;-63
2023/09/22 03:10:34;;;;;;;20.98;16.73;;;;;;;;;;5082223;28;20165;-62
2023/09/22 03:13:00;;;;;;;20.40;16.48;;;;;;;;;;5081722;28;20063;-63
2023/09/22 03:15:26;;;;;;;22.08;17.50;;;;;;;;;;5082432;28;20123;-63
2023/09/22 03:17:52;;;;;;;19.02;15.40;;;;;;;;;;5081955;28;20039;-63
2023/09/22 03:20:19;;;;;;;20.40;16.00;;;;;;;;;;5082116;28;20665;-63
2023/09/22 03:22:46;;;;;;;20.75;15.70;;;;;;;;;;5081808;28;20055;-63
2023/09/22 03:25:12;;;;;;;20.58;15.40;;;;;;;;;;5082253;28;20028;-63
2023/09/22 03:27:38;;;;;;;19.73;15.35;;;;;;;;;;5082182;28;20039;-63
2023/09/22 03:30:08;;;;;;;18.55;14.25;;;;;;;;;;5081897;28;20023;-62
2023/09/22 03:32:35;;;;;;;20.35;15.00;;;;;;;;;;5082156;28;20024;-63
2023/09/22 03:35:06;;;;;;;20.63;14.90;;;;;;;;;;5081791;28;20043;-66
2023/09/22 03:37:32;;;;;;;17.33;13.13;;;;;;;;;;5081465;28;20043;-62
2023/09/22 03:40:13;;;;;;;17.80;12.68;;;;;;;;;;5081890;28;20039;-63
2023/09/22 03:42:40;;;;;;;15.80;12.32;;;;;;;;;;5081622;28;20039;-63
2023/09/22 03:45:07;;;;;;;15.32;11.38;;;;;;;;;;5080973;28;20036;-63
2023/09/22 03:47:33;;;;;;;19.80;12.30;;;;;;;;;;5081295;28;20036;-63
2023/09/22 03:49:59;;;;;;;17.00;12.32;;;;;;;;;;5080850;28;20043;-63
2023/09/22 03:52:26;;;;;;;18.27;12.40;;;;;;;;;;5079840;28;20119;-63
2023/09/22 03:54:52;;;;;;;15.57;12.38;;;;;;;;;;5080857;28;20047;-63
2023/09/22 03:57:18;;;;;;;17.25;12.57;;;;;;;;;;5080632;28;20036;-63
2023/09/22 03:59:44;;;;;;;17.70;11.73;;;;;;;;;;5080228;28;21084;-63
2023/09/22 04:02:10;;;;;;;17.15;12.52;;;;;;;;;;5081074;28;20035;-63
2023/09/22 04:04:37;;;;;;;16.10;12.80;;;;;;;;;;5081627;28;20407;-63
2023/09/22 04:07:03;;;;;;;20.05;13.93;;;;;;;;;;5081048;28;20028;-63
2023/09/22 04:09:31;;;;;;;17.40;13.05;;;;;;;;;;5081264;28;20036;-63
2023/09/22 04:11:58;;;;;;;16.10;12.88;;;;;;;;;;5081442;28;20036;-63
2023/09/22 04:14:24;;;;;;;19.27;13.25;;;;;;;;;;5080609;28;20051;-64
2023/09/22 04:16:50;;;;;;;25.80;12.52;;;;;;;;;;5081050;28;20032;-63
2023/09/22 04:19:16;;;;;;;19.73;13.48;;;;;;;;;;5081311;28;20032;-63
2023/09/22 04:21:48;;;;;;;18.90;12.75;;;;;;;;;;5080828;28;20036;-63
2023/09/22 04:24:14;;;;;;;17.23;12.32;;;;;;;;;;5081495;28;20077;-63
2023/09/22 04:26:43;;;;;;;19.67;12.93;;;;;;;;;;5083083;28;20038;-63
2023/09/22 04:29:10;;;;;;;17.20;11.90;;;;;;;;;;5084459;28;20036;-63
2023/09/22 04:31:36;;;;;;;24.63;13.02;;;;;;;;;;5085575;28;20028;-63
2023/09/22 04:34:03;;;;;;;15.60;11.40;;;;;;;;;;5085608;28;20020;-63
2023/09/22 04:36:30;;;;;;;18.65;11.80;;;;;;;;;;5084435;28;20811;-63
2023/09/22 04:38:56;;;;;;;17.90;12.00;;;;;;;;;;5084913;28;20118;-63
2023/09/22 04:41:22;;;;;;;18.77;11.52;;;;;;;;;;5066205;28;20097;-63
2023/09/22 04:43:49;;;;;;;21.10;12.27;;;;;;;;;;5084437;28;20044;-63
2023/09/22 04:46:15;;;;;;;21.98;11.93;;;;;;;;;;5084095;28;20040;-63
2023/09/22 04:48:42;;;;;;;19.63;13.07;;;;;;;;;;5085013;28;20051;-63
2023/09/22 04:51:08;;;;;;;18.85;13.45;;;;;;;;;;5084314;28;20027;-63
2023/09/22 04:53:34;;;;;;;19.58;13.88;;;;;;;;;;5084480;28;20043;-63
2023/09/22 04:56:05;;;;;;;19.10;13.77;;;;;;;;;;5085256;28;20110;-63
2023/09/22 04:58:32;;;;;;;21.08;13.98;;;;;;;;;;5084465;28;20024;-63
2023/09/22 05:01:01;;;;;;;19.33;14.52;;;;;;;;;;5084749;28;20462;-63
2023/09/22 05:03:28;;;;;;;21.95;15.00;;;;;;;;;;5084544;28;20039;-63
2023/09/22 05:05:54;;;;;;;18.60;14.00;;;;;;;;;;5084598;28;20032;-63
2023/09/22 05:08:20;;;;;;;22.40;14.75;;;;;;;;;;5084487;28;20031;-63
2023/09/22 05:10:49;;;;;;;19.27;14.38;;;;;;;;;;5084687;28;20028;-63
2023/09/22 05:13:18;;;;;;;21.70;15.55;;;;;;;;;;5083702;28;20024;-63
2023/09/22 05:15:45;;;;;;;21.70;15.60;;;;;;;;;;5084423;28;20028;-63
2023/09/22 05:18:14;;;;;;;25.27;15.98;;;;;;;;;;5084397;28;20059;-63
2023/09/22 05:20:43;;;;;;;22.00;15.82;;;;;;;;;;5084100;28;20039;-63
2023/09/22 05:23:09;;;;;;;21.90;16.00;;;;;;;;;;5084183;28;20035;-63
2023/09/22 05:25:40;;;;;;;22.35;15.80;;;;;;;;;;5084314;28;20031;-63
2023/09/22 05:28:08;;;;;;;22.08;15.52;;;;;;;;;;5083541;28;20028;-63
2023/09/22 05:30:35;;;;;;;23.30;16.05;;;;;;;;;;5083806;28;20036;-63
2023/09/22 05:33:01;;;;;;;21.75;14.82;;;;;;;;;;5064726;28;20035;-63
2023/09/22 05:35:27;;;;;;;22.38;15.15;;;;;;;;;;5083874;28;20421;-63
2023/09/22 05:37:53;;;;;;;27.67;16.10;;;;;;;;;;5083996;28;20028;-63
2023/09/22 05:40:19;;;;;;;22.45;15.73;;;;;;;;;;5083906;28;20055;-63
2023/09/22 05:42:45;;;;;;;19.73;15.00;;;;;;;;;;5083377;28;20036;-63
2023/09/22 05:45:11;;;;;;;26.23;16.65;;;;;;;;;;5084009;28;20104;-63
2023/09/22 05:47:37;;;;;;;24.13;15.82;;;;;;;;;;5084089;28;20039;-63
2023/09/22 05:50:06;;;;;;;23.77;17.67;;;;;;;;;;5083121;28;20058;-63
2023/09/22 05:52:32;;;;;;;24.83;17.67;;;;;;;;;;5083582;28;20127;-63
2023/09/22 05:54:58;;;;;;;22.60;16.63;;;;;;;;;;5083534;28;20150;-63
2023/09/22 05:57:24;;;;;;;23.70;16.77;;;;;;;;;;5083411;28;20036;-63
2023/09/22 05:59:50;;;;;;;27.70;19.02;;;;;;;;;;5083774;28;20031;-63
2023/09/22 06:02:17;;;;;;;22.92;17.10;;;;;;;;;;5083796;28;20032;-63
2023/09/22 06:04:43;;;;;;;23.38;17.25;;;;;;;;;;5081976;28;20042;-63
2023/09/22 06:07:12;;;;;;;27.73;18.52;;;;;;;;;;5082217;28;20171;-63
2023/09/22 06:09:39;;;;;;;28.58;18.77;;;;;;;;;;5082767;28;20143;-63
2023/09/22 06:12:05;;;;;;;30.70;19.25;;;;;;;;;;5082230;28;20135;-63
2023/09/22 06:14:31;;;;;;;32.22;19.55;;;;;;;;;;5082318;28;20963;-63
2023/09/22 06:16:57;;;;;;;27.75;18.98;;;;;;;;;;5082504;28;20772;-63
2023/09/22 06:19:23;;;;;;;26.38;18.08;;;;;;;;;;5082970;28;20032;-63
2023/09/22 06:21:49;;;;;;;31.05;19.92;;;;;;;;;;5083524;28;20032;-63
2023/09/22 06:24:17;;;;;;;27.58;18.35;;;;;;;;;;5083259;28;20139;-63
2023/09/22 06:26:43;;;;;;;27.40;19.05;;;;;;;;;;5082722;28;20394;-63
2023/09/22 06:29:09;;;;;;;27.05;18.02;;;;;;;;;;5083418;28;20040;-63
2023/09/22 06:31:37;;;;;;;26.67;17.88;;;;;;;;;;5083445;28;21079;-63
2023/09/22 06:34:04;;;;;;;24.55;17.75;;;;;;;;;;5082963;28;21057;-63
2023/09/22 06:36:30;;;;;;;26.58;17.95;;;;;;;;;;5083248;28;20401;-63
2023/09/22 06:38:57;;;;;;;28.30;18.98;;;;;;;;;;5083302;28;20028;-63
2023/09/22 06:41:23;;;;;;;26.40;18.00;;;;;;;;;;5082762;28;20106;-63
2023/09/22 06:43:53;;;;;;;27.95;18.83;;;;;;;;;;5067170;28;20035;-63
2023/09/22 06:46:19;;;;;;;29.33;18.55;;;;;;;;;;5083059;28;20028;-63
2023/09/22 06:48:45;;;;;;;30.23;19.40;;;;;;;;;;5082280;28;20611;-63
2023/09/22 06:51:18;;;;;;;31.17;19.92;;;;;;;;;;5072439;28;20056;-63
2023/09/22 06:53:44;;;;;;;27.05;18.35;;;;;;;;;;5082993;28;20034;-63
2023/09/22 06:56:10;;;;;;;29.58;19.33;;;;;;;;;;5082388;28;20077;-63
2023/09/22 06:58:38;;;;;;;25.55;17.55;;;;;;;;;;5080432;28;20040;-63
2023/09/22 07:01:12;;;;;;;28.88;19.88;;;;;;;;;;5081880;28;20058;-64
2023/09/22 07:03:39;;;;;;;26.83;17.73;;;;;;;;;;5062400;28;20036;-63
2023/09/22 07:06:08;;;;;;;28.08;18.30;;;;;;;;;;5081758;28;20510;-63
2023/09/22 07:08:36;;;;;;;26.35;16.88;;;;;;;;;;5081257;28;20159;-63
2023/09/22 07:11:03;;;;;;;27.52;17.15;;;;;;;;;;5081122;28;20028;-63
2023/09/22 07:13:29;;;;;;;26.73;17.45;;;;;;;;;;5081835;28;20048;-63
2023/09/22 07:15:56;;;;;;;25.45;17.05;;;;;;;;;;5081350;28;20372;-63
2023/09/22 07:18:24;;;;;;;25.83;15.60;;;;;;;;;;5080955;28;20065;-63
2023/09/22 07:20:50;;;;;;;22.55;14.70;;;;;;;;;;5081742;28;20039;-63
2023/09/22 07:23:16;;;;;;;23.05;15.25;;;;;;;;;;5081600;28;20036;-64
2023/09/22 07:25:43;;;;;;;26.58;15.48;;;;;;;;;;5081637;28;20379;-63
2023/09/22 07:28:11;;;;;;;24.40;14.65;;;;;;;;;;5081485;28;20127;-63
2023/09/22 07:30:38;;;;;;;23.15;13.38;;;;;;;;;;5080852;28;20080;-63
2023/09/22 07:33:05;;;;;;;22.52;14.02;;;;;;;;;;5061339;28;20028;-63
2023/09/22 07:35:32;;;;;;;21.70;14.05;;;;;;;;;;5061272;28;20059;-63
2023/09/22 07:37:58;;;;;;;21.50;13.85;;;;;;;;;;5061466;28;20032;-63
2023/09/22 07:40:24;;;;;;;23.48;14.55;;;;;;;;;;5080973;28;20032;-63
2023/09/22 07:42:51;;;;;;;18.73;13.98;;;;;;;;;;5081091;28;20047;-63
2023/09/22 07:45:17;;;;;;;22.95;14.80;;;;;;;;;;5080439;28;20036;-63
2023/09/22 07:47:44;;;;;;;22.20;14.23;;;;;;;;;;5080527;28;20129;-63
2023/09/22 07:50:11;;;;;;;21.17;13.25;;;;;;;;;;5080917;28;20032;-63
2023/09/22 07:52:37;;;;;;;20.05;14.13;;;;;;;;;;5060258;28;20139;-63
2023/09/22 07:55:07;;;;;;;21.30;13.43;;;;;;;;;;5075476;28;21912;-63
2023/09/22 07:57:34;;;;;;;20.65;13.05;;;;;;;;;;5060903;28;20036;-63
2023/09/22 08:00:00;;;;;;;19.05;13.38;;;;;;;;;;5060309;28;20374;-63
2023/09/22 08:02:26;;;;;;;19.00;12.88;;;;;;;;;;5060584;28;20027;-63
2023/09/22 08:04:52;;;;;;;20.17;12.85;;;;;;;;;;5061130;28;20036;-63
2023/09/22 08:07:18;;;;;;;17.98;11.55;;;;;;;;;;5060579;28;20089;-63
2023/09/22 08:09:44;;;;;;;16.58;10.57;;;;;;;;;;5061345;28;20474;-63
2023/09/22 08:12:10;;;;;;;16.42;11.18;;;;;;;;;;5061247;28;20032;-63
2023/09/22 08:14:36;;;;;;;18.45;10.65;;;;;;;;;;5058657;28;20028;-63
2023/09/22 08:17:06;;;;;;;16.17;11.02;;;;;;;;;;5059971;28;20044;-63
2023/09/22 08:19:32;;;;;;;17.25;10.68;;;;;;;;;;5059926;28;20029;-63
2023/09/22 08:21:59;;;;;;;16.25;11.07;;;;;;;;;;5074946;28;20137;-63
2023/09/22 08:24:25;;;;;;;17.13;10.20;;;;;;;;;;5060118;28;20044;-63
2023/09/22 08:26:51;;;;;;;17.92;10.07;;;;;;;;;;5060127;28;20109;-63
2023/09/22 08:29:18;;;;;;;22.10;12.10;;;;;;;;;;5060505;28;21043;-63
2023/09/22 08:31:44;;;;;;;18.98;11.15;;;;;;;;;;5061094;28;20109;-63
2023/09/22 08:34:11;;;;;;;18.30;11.95;;;;;;;;;;5061071;28;20054;-63
2023/09/22 08:36:37;;;;;;;19.02;10.40;;;;;;;;;;5060408;28;20032;-63
2023/09/22 08:39:03;;;;;;;17.85;11.77;;;;;;;;;;5060665;28;20822;-63
2023/09/22 08:41:32;;;;;;;16.27;11.25;;;;;;;;;;5061111;28;20040;-63
2023/09/22 08:43:59;;;;;;;17.67;10.82;;;;;;;;;;5060263;28;20036;-63
2023/09/22 08:46:25;;;;;;;17.05;11.38;;;;;;;;;;5060861;28;20039;-63
2023/09/22 08:48:51;;;;;;;15.43;10.77;;;;;;;;;;5060750;28;20047;-63
2023/09/22 08:51:18;;;;;;;16.95;11.73;;;;;;;;;;5060148;28;20029;-63
2023/09/22 08:53:44;;;;;;;18.10;11.18;;;;;;;;;;5061034;28;20036;-63
2023/09/22 08:56:10;;;;;;;15.35;10.88;;;;;;;;;;5081135;28;20108;-63
2023/09/22 08:58:36;;;;;;;14.55;10.73;;;;;;;;;;5080169;28;20104;-63
2023/09/22 09:01:03;;;;;;;15.48;10.10;;;;;;;;;;5081109;28;20633;-63
2023/09/22 09:03:31;;;;;;;14.57;9.88;;;;;;;;;;5061496;28;20382;-63
2023/09/22 09:06:07;;;;;;;15.60;10.35;;;;;;;;;;5080155;28;20032;-63
2023/09/22 09:08:36;;;;;;;12.93;8.48;;;;;;;;;;5080422;28;20067;-63
2023/09/22 09:11:10;;;;;;;10.23;7.90;;;;;;;;;;5080911;28;20502;-63
2023/09/22 09:13:37;;;;;;;12.10;7.13;;;;;;;;;;5083016;28;20031;-63
2023/09/22 09:16:07;;;;;;;12.93;7.35;;;;;;;;;;5084751;28;20035;-63
2023/09/22 09:18:34;;;;;;;9.85;6.75;;;;;;;;;;5084231;28;20042;-63
2023/09/22 09:21:11;;;;;;;10.13;7.43;;;;;;;;;;5084036;28;20035;-63
2023/09/22 09:23:37;;;;;;;10.82;6.30;;;;;;;;;;5074346;28;20113;-63
2023/09/22 09:26:04;;;;;;;11.02;6.70;;;;;;;;;;5083936;28;20541;-63
2023/09/22 09:28:30;;;;;;;9.15;5.60;;;;;;;;;;5083830;28;20077;-63
2023/09/22 09:31:00;;;;;;;11.85;5.05;;;;;;;;;;5083817;28;20046;-63
2023/09/22 09:33:31;;;;;;;9.50;5.20;;;;;;;;;;5084629;28;20024;-63
2023/09/22 09:35:57;;;;;;;9.32;4.57;;;;;;;;;;5083568;28;20112;-63
2023/09/22 09:38:27;;;;;;;6.53;3.75;;;;;;;;;;5083718;28;20644;-63
2023/09/22 09:40:54;;;;;;;9.02;3.80;;;;;;;;;;5084140;28;20032;-63
2023/09/22 09:43:21;;;;;;;8.18;3.15;;;;;;;;;;5082751;28;20543;-63
2023/09/22 09:45:51;;;;;;;5.55;2.83;;;;;;;;;;5083697;28;20044;-63
2023/09/22 09:48:18;;;;;;;6.28;3.03;;;;;;;;;;5083821;28;20036;-63
2023/09/22 09:50:49;;;;;;;5.43;3.00;;;;;;;;;;5083216;28;20028;-63
2023/09/22 09:53:26;;;;;;;5.25;2.92;;;;;;;;;;5083741;28;20263;-63
2023/09/22 09:55:56;;;;;;;4.32;2.10;;;;;;;;;;5083767;28;20039;-63
2023/09/22 09:58:24;;;;;;;6.20;2.33;;;;;;;;;;5083202;28;20110;-63
2023/09/22 10:00:50;;;;;;;10.15;2.15;;;;;;;;;;5083052;28;20146;-63
2023/09/22 10:03:18;;;;;;;4.47;2.30;;;;;;;;;;5067785;28;20098;-63
2023/09/22 10:05:44;;;;;;;8.98;1.80;;;;;;;;;;5082459;28;20071;-63
2023/09/22 10:08:12;;;;;;;3.70;1.80;;;;;;;;;;5083237;28;20043;-63
2023/09/22 10:10:38;;;;;;;4.03;1.52;;;;;;;;;;5083161;28;20041;-63
2023/09/22 10:13:05;;;;;;;4.15;1.75;;;;;;;;;;5082840;28;20024;-63
2023/09/22 10:15:50;;;;;;;3.83;2.03;;;;;;;;;;5083172;28;20065;-63
2023/09/22 10:18:17;;;;;;;3.95;1.77;;;;;;;;;;5083035;28;20028;-63
2023/09/22 10:20:46;;;;;;;4.25;1.50;;;;;;;;;;5082649;28;20036;-63
2023/09/22 10:23:19;;;;;;;4.45;1.70;;;;;;;;;;5082991;28;20066;-63
2023/09/22 10:26:04;;;;;;;3.78;1.67;;;;;;;;;;5082091;28;20032;-63
2023/09/22 10:28:34;;;;;;;6.05;1.70;;;;;;;;;;5082202;28;20124;-63
2023/09/22 10:31:00;;;;;;;3.25;1.33;;;;;;;;;;5082926;28;20043;-63
2023/09/22 10:33:26;;;;;;;3.70;1.33;;;;;;;;;;5082104;28;20028;-63
2023/09/22 10:35:53;;;;;;;2.25;1.20;;;;;;;;;;5080760;28;20032;-63
2023/09/22 10:38:22;;;;;;;3.22;1.27;;;;;;;;;;5081953;28;20032;-63
2023/09/22 10:41:06;;;;;;;1.95;1.00;;;;;;;;;;5081189;28;20081;-63
2023/09/22 10:43:33;;;;;;;4.97;1.42;;;;;;;;;;5081466;28;20123;-63
2023/09/22 10:45:59;;;;;;;3.55;1.25;;;;;;;;;;5082189;28;20036;-63
2023/09/22 10:48:35;;;;;;;3.63;1.65;;;;;;;;;;5081978;28;20036;-63
2023/09/22 10:51:02;;;;;;;3.88;1.60;;;;;;;;;;5082799;28;20042;-63
2023/09/22 10:53:32;;;;;;;3.80;1.92;;;;;;;;;;5062631;28;20459;-63
2023/09/22 10:55:58;;;;;;;4.45;1.42;;;;;;;;;;5081041;28;20038;-63
2023/09/22 10:58:26;;;;;;;3.25;1.70;;;;;;;;;;5083069;28;20040;-63
2023/09/22 11:00:56;;;;;;;2.97;1.63;;;;;;;;;;5082409;28;20120;-63
2023/09/22 11:03:23;;;;;;;4.13;1.58;;;;;;;;;;5080484;28;20073;-63
2023/09/22 11:06:10;;;;;;;3.72;1.40;;;;;;;;;;5081457;28;20074;-63
2023/09/22 11:08:52;;;;;;;4.18;1.50;;;;;;;;;;5080721;28;21084;-63
2023/09/22 11:11:19;;;;;;;2.63;1.52;;;;;;;;;;5080896;28;20028;-63
2023/09/22 11:13:54;;;;;;;3.53;1.52;;;;;;;;;;5081370;28;20035;-63
2023/09/22 11:16:21;;;;;;;2.90;1.58;;;;;;;;;;5081562;28;20024;-63
2023/09/22 11:18:50;;;;;;;4.03;1.58;;;;;;;;;;5081531;28;20028;-63
2023/09/22 11:21:17;;;;;;;3.38;1.60;;;;;;;;;;5081403;28;20065;-63
2023/09/22 11:23:43;;;;;;;3.05;1.25;;;;;;;;;;5082068;28;20495;-63
2023/09/22 11:26:10;;;;;;;2.67;1.42;;;;;;;;;;5080429;28;20514;-63
2023/09/22 11:28:40;;;;;;;1.42;0.90;;;;;;;;;;5081866;28;20068;-63
2023/09/22 11:31:17;;;;;;;2.75;1.38;;;;;;;;;;5081430;28;20028;-63
2023/09/22 11:33:44;;;;;;;2.72;1.10;;;;;;;;;;5082045;28;20073;-63
2023/09/22 11:36:10;;;;;;;5.40;2.10;;;;;;;;;;5081454;28;20035;-63
2023/09/22 11:38:40;;;;;;;2.88;1.30;;;;;;;;;;5081164;28;20036;-63
2023/09/22 11:41:10;;;;;;;2.25;1.40;;;;;;;;;;5081814;28;20628;-63
2023/09/22 11:43:40;;;;;;;4.82;1.77;;;;;;;;;;5081328;28;20081;-63
2023/09/22 11:46:07;;;;;;;3.83;1.83;;;;;;;;;;5080541;28;20072;-63
2023/09/22 11:48:51;;;;;;;4.18;1.23;;;;;;;;;;5081414;28;20031;-63
2023/09/22 11:51:17;;;;;;;2.83;1.50;;;;;;;;;;5081700;28;20173;-63
2023/09/22 11:53:43;;;;;;;3.90;1.42;;;;;;;;;;5081400;28;20027;-63
2023/09/22 11:56:09;;;;;;;3.83;1.38;;;;;;;;;;5081288;28;20063;-63
2023/09/22 11:58:35;;;;;;;4.07;1.30;;;;;;;;;;5081077;28;20169;-63
2023/09/22 12:01:01;;;;;;;5.10;1.30;;;;;;;;;;5081265;28;20182;-63
2023/09/22 12:03:27;;;;;;;2.75;1.10;;;;;;;;;;5081078;28;20040;-63
2023/09/22 12:05:53;;;;;;;3.17;1.30;;;;;;;;;;5081284;28;20063;-63
2023/09/22 12:08:20;;;;;;;3.38;1.35;;;;;;;;;;5080768;28;20036;-62
2023/09/22 12:10:46;;;;;;;3.13;1.60;;;;;;;;;;5081131;28;20425;-63
2023/09/22 12:13:12;;;;;;;4.80;1.40;;;;;;;;;;5081227;28;20036;-63
2023/09/22 12:15:38;;;;;;;4.43;1.58;;;;;;;;;;5080138;28;20040;-63
2023/09/22 12:18:04;;;;;;;3.28;1.30;;;;;;;;;;5081429;28;20036;-63
2023/09/22 12:20:30;;;;;;;4.75;1.40;;;;;;;;;;5079294;28;20035;-63
2023/09/22 12:22:57;;;;;;;3.28;1.15;;;;;;;;;;5080464;28;20712;-63
2023/09/22 12:25:23;;;;;;;3.70;1.30;;;;;;;;;;5080225;28;20123;-63
2023/09/22 12:27:49;;;;;;;2.63;1.30;;;;;;;;;;5080736;28;20039;-63
2023/09/22 12:30:15;;;;;;;4.78;1.50;;;;;;;;;;5080759;28;20043;-63
2023/09/22 12:32:41;;;;;;;2.22;1.33;;;;;;;;;;5070716;28;20024;-63
2023/09/22 12:35:07;;;;;;;2.35;1.20;;;;;;;;;;5080738;28;20035;-63
2023/09/22 12:37:33;;;;;;;1.85;1.02;;;;;;;;;;5080489;28;20113;-63
2023/09/22 12:40:01;;;;;;;3.28;1.38;;;;;;;;;;5080859;28;20036;-63
2023/09/22 12:42:28;;;;;;;5.72;1.67;;;;;;;;;;5061520;28;20058;-63
2023/09/22 12:44:54;;;;;;;4.53;1.98;;;;;;;;;;5080837;28;20498;-62
2023/09/22 12:47:20;;;;;;;2.70;1.20;;;;;;;;;;5081182;28;20340;-63
2023/09/22 12:49:46;;;;;;;3.38;1.20;;;;;;;;;;5084238;28;20066;-63
2023/09/22 12:52:12;;;;;;;1.90;1.20;;;;;;;;;;5083788;28;21169;-63
2023/09/22 12:54:38;;;;;;;6.03;1.58;;;;;;;;;;5082682;28;20036;-63
2023/09/22 12:57:04;;;;;;;2.88;1.27;;;;;;;;;;5083443;28;20038;-63
2023/09/22 12:59:31;;;;;;;3.97;1.30;;;;;;;;;;5083691;28;20031;-63
2023/09/22 13:01:57;;;;;;;3.17;1.35;;;;;;;;;;5084139;28;20036;-63
2023/09/22 13:04:28;;;;;;;2.45;1.10;;;;;;;;;;5083427;28;20031;-63
2023/09/22 13:06:54;;;;;;;3.03;1.58;;;;;;;;;;5080350;28;20533;-63
2023/09/22 13:09:20;;;;;;;2.75;1.33;;;;;;;;;;5083264;28;20475;-63
2023/09/22 13:11:46;;;;;;;4.70;1.60;;;;;;;;;;5082839;28;20016;-63
2023/09/22 13:14:12;;;;;;;3.75;1.30;;;;;;;;;;5083189;28;20031;-63
2023/09/22 13:16:41;;;;;;;5.10;1.42;;;;;;;;;;5083744;28;20027;-63
2023/09/22 13:19:08;;;;;;;5.28;2.10;;;;;;;;;;5084086;28;20144;-63
2023/09/22 13:21:34;;;;;;;4.70;1.50;;;;;;;;;;5084670;28;20063;-63
2023/09/22 13:24:00;;;;;;;6.65;2.08;;;;;;;;;;5084764;28;20036;-63
2023/09/22 13:26:26;;;;;;;9.07;3.13;;;;;;;;;;5083837;28;20032;-63
2023/09/22 13:28:55;;;;;;;4.38;1.40;;;;;;;;;;5084200;28;20032;-63
2023/09/22 13:31:22;;;;;;;2.60;1.33;;;;;;;;;;5084782;28;20020;-63
2023/09/22 13:33:48;;;;;;;5.43;1.67;;;;;;;;;;5084051;28;20082;-63
2023/09/22 13:36:15;;;;;;;2.10;1.27;;;;;;;;;;5084634;28;20043;-63
2023/09/22 13:38:42;;;;;;;4.53;1.40;;;;;;;;;;5084406;28;20539;-63
2023/09/22 13:41:15;;;;;;;4.40;1.50;;;;;;;;;;5073845;28;20124;-63
2023/09/22 13:43:43;;;;;;;2.60;1.23;;;;;;;;;;5083988;28;20077;-63
2023/09/22 13:46:13;;;;;;;3.00;1.20;;;;;;;;;;5074111;28;20044;-63
2023/09/22 13:48:39;;;;;;;3.22;1.13;;;;;;;;;;5083050;28;20130;-63
2023/09/22 13:51:06;;;;;;;4.13;1.17;;;;;;;;;;5083935;28;20032;-63
2023/09/22 13:53:36;;;;;;;6.63;2.17;;;;;;;;;;5083777;28;20074;-63
2023/09/22 13:56:02;;;;;;;4.97;1.80;;;;;;;;;;5082666;28;20067;-63
2023/09/22 13:58:29;;;;;;;5.47;1.20;;;;;;;;;;5082396;28;20024;-63
2023/09/22 14:00:56;;;;;;;5.00;1.20;;;;;;;;;;5083204;28;20038;-62
2023/09/22 14:03:23;;;;;;;3.83;1.20;;;;;;;;;;5082835;28;20076;-63
2023/09/22 14:05:49;;;;;;;3.28;1.20;;;;;;;;;;5083387;28;20127;-63
2023/09/22 14:08:16;;;;;;;3.17;1.10;;;;;;;;;;5083724;28;20040;-63
2023/09/22 14:10:42;;;;;;;3.83;1.20;;;;;;;;;;5083033;28;20020;-63
2023/09/22 14:13:08;;;;;;;2.85;1.08;;;;;;;;;;5082758;28;20032;-63
2023/09/22 14:15:35;;;;;;;3.95;1.30;;;;;;;;;;5083335;28;20021;-63
2023/09/22 14:18:02;;;;;;;3.97;1.17;;;;;;;;;;5083190;28;20066;-63
2023/09/22 14:20:28;;;;;;;4.53;1.30;;;;;;;;;;5083111;28;20036;-63
2023/09/22 14:22:55;;;;;;;3.65;1.30;;;;;;;;;;5067291;28;20024;-63
2023/09/22 14:25:23;;;;;;;2.67;1.10;;;;;;;;;;5082640;28;20287;-63
2023/09/22 14:27:51;;;;;;;3.80;1.20;;;;;;;;;;5083404;28;20083;-62